Time;durP1;ratioP1;P1;durP2;ratioP2;P2;SDS_P1;SDS_P2;PMS_P1;PMS_P2;Temp;Humidity;BMP_temperature;BMP_pressure;BME280_temperature;BME280_humidity;BME280_pressure;Samples;Min_cycle;Max_cycle;Signal;HPM_P1;HPM_P2
2022/04/03 00:02:07;;;;;;;11.13;4.13;;;;;;;2.73;92.80;102455.69;5012015;28;20041;-68
2022/04/03 00:04:33;;;;;;;4.00;2.75;;;;;;;2.58;92.57;102448.56;5013029;28;20030;-67
2022/04/03 00:06:59;;;;;;;5.85;2.78;;;;;;;2.57;94.09;102449.34;5012767;28;20258;-67
2022/04/03 00:09:25;;;;;;;4.15;2.60;;;;;;;2.57;94.68;102458.84;5012612;28;20095;-67
2022/04/03 00:11:51;;;;;;;5.45;2.70;;;;;;;2.47;94.21;102454.63;4982909;28;20041;-67
2022/04/03 00:14:16;;;;;;;3.78;2.42;;;;;;;2.44;94.56;102454.41;5013286;28;20097;-67
2022/04/03 00:16:42;;;;;;;4.60;3.15;;;;;;;2.43;94.97;102450.91;5013504;28;20108;-67
2022/04/03 00:19:08;;;;;;;10.65;2.88;;;;;;;2.28;95.03;102448.06;4974801;28;1105296;-68
2022/04/03 00:21:35;;;;;;;11.57;3.20;;;;;;;2.24;93.35;102445.09;5010618;28;20618;-67
2022/04/03 00:24:01;;;;;;;6.13;3.50;;;;;;;2.16;94.07;102447.13;5014276;28;20551;-68
2022/04/03 00:26:26;;;;;;;6.07;3.10;;;;;;;2.11;94.62;102445.88;4996127;28;20046;-68
2022/04/03 00:28:51;;;;;;;5.05;3.03;;;;;;;2.07;96.33;102454.22;5013145;28;20516;-68
2022/04/03 00:31:17;;;;;;;8.35;3.28;;;;;;;1.89;97.59;102454.59;5014475;28;20069;-67
2022/04/03 00:33:43;;;;;;;4.35;3.15;;;;;;;1.86;96.75;102449.16;5010772;28;20109;-68
2022/04/03 00:36:09;;;;;;;8.38;3.40;;;;;;;1.88;98.32;102459.66;5011988;28;20076;-67
2022/04/03 00:38:34;;;;;;;7.88;3.35;;;;;;;1.86;97.92;102459.56;5012745;28;20037;-67
2022/04/03 00:41:01;;;;;;;11.43;3.35;;;;;;;1.88;97.02;102452.78;5013456;28;20068;-67
2022/04/03 00:43:26;;;;;;;5.32;2.70;;;;;;;1.81;96.08;102450.50;5013742;28;20077;-67
2022/04/03 00:45:52;;;;;;;8.90;3.15;;;;;;;1.82;96.22;102454.91;5012452;28;20057;-67
2022/04/03 00:48:18;;;;;;;6.57;3.20;;;;;;;1.77;96.29;102448.44;5008885;28;20421;-67
2022/04/03 00:50:44;;;;;;;6.03;2.95;;;;;;;1.83;97.24;102455.03;5012875;28;20032;-67
2022/04/03 00:53:09;;;;;;;5.22;2.83;;;;;;;1.82;96.55;102449.72;5005022;28;20033;-67
2022/04/03 00:55:35;;;;;;;5.72;2.65;;;;;;;1.73;97.03;102454.19;5019636;28;20508;-67
2022/04/03 00:58:01;;;;;;;5.03;3.25;;;;;;;1.62;97.23;102453.34;5011426;28;20034;-68
2022/04/03 01:00:27;;;;;;;5.47;3.03;;;;;;;1.63;97.91;102453.44;4996325;28;20057;-67
2022/04/03 01:02:52;;;;;;;5.35;2.92;;;;;;;1.56;97.79;102448.56;5008812;28;20089;-67
2022/04/03 01:05:18;;;;;;;11.43;3.15;;;;;;;1.58;99.30;102447.00;5010001;28;20080;-67
2022/04/03 01:07:44;;;;;;;3.67;2.90;;;;;;;1.48;99.42;102452.25;5010814;28;20109;-67
2022/04/03 01:10:09;;;;;;;5.55;2.85;;;;;;;1.48;99.78;102450.56;4994177;28;20030;-67
2022/04/03 01:12:44;;;;;;;9.30;3.83;;;;;;;1.33;98.61;102449.34;5013450;28;20481;-67
2022/04/03 01:15:09;;;;;;;6.13;3.47;;;;;;;1.25;98.46;102456.50;5013300;28;20040;-67
2022/04/03 01:17:35;;;;;;;7.25;3.15;;;;;;;1.16;99.80;102453.16;5013335;28;20026;-67
2022/04/03 01:20:00;;;;;;;4.07;2.88;;;;;;;1.13;98.93;102451.22;5011362;28;20131;-68
2022/04/03 01:22:25;;;;;;;9.93;3.67;;;;;;;1.09;99.74;102443.09;5018099;28;20029;-69
2022/04/03 01:24:58;;;;;;;4.60;2.95;;;;;;;1.09;100.00;102449.16;4993321;28;20036;-67
2022/04/03 01:27:23;;;;;;;4.97;3.13;;;;;;;1.05;100.00;102451.41;5014747;28;20026;-67
2022/04/03 01:29:49;;;;;;;5.00;3.08;;;;;;;0.98;100.00;102443.09;5013049;28;20152;-67
2022/04/03 01:32:14;;;;;;;4.63;3.30;;;;;;;0.94;100.00;102448.81;5010067;28;20037;-67
2022/04/03 01:34:40;;;;;;;4.63;3.10;;;;;;;0.90;100.00;102443.28;5012716;28;20026;-67
2022/04/03 01:37:05;;;;;;;7.22;3.47;;;;;;;0.91;100.00;102438.22;5012590;28;20112;-68
2022/04/03 01:39:31;;;;;;;4.72;3.20;;;;;;;0.86;100.00;102443.81;5011726;28;20088;-66
2022/04/03 01:41:57;;;;;;;5.38;3.10;;;;;;;0.80;100.00;102436.41;4998141;28;20048;-66
2022/04/03 01:44:23;;;;;;;4.90;2.55;;;;;;;0.73;100.00;102429.81;5015239;28;20375;-68
2022/04/03 01:46:48;;;;;;;5.65;3.10;;;;;;;0.66;100.00;102432.69;5012323;28;20025;-66
2022/04/03 01:49:13;;;;;;;4.22;2.85;;;;;;;0.60;100.00;102430.50;5011900;28;20022;-68
2022/04/03 01:51:39;;;;;;;5.13;3.05;;;;;;;0.61;100.00;102429.75;4995921;28;20034;-66
2022/04/03 01:54:04;;;;;;;4.65;3.30;;;;;;;0.75;100.00;102429.97;5011705;28;20152;-66
2022/04/03 01:56:32;;;;;;;5.20;2.70;;;;;;;0.78;100.00;102427.63;5011052;28;20034;-67
2022/04/03 01:58:58;;;;;;;10.80;3.35;;;;;;;0.80;100.00;102429.56;5015221;28;20459;-67
2022/04/03 02:01:24;;;;;;;6.80;2.67;;;;;;;0.83;100.00;102424.63;5011962;28;20088;-67
2022/04/03 02:03:49;;;;;;;6.38;2.60;;;;;;;0.83;100.00;102424.63;5011189;28;20396;-66
2022/04/03 02:06:15;;;;;;;7.05;2.58;;;;;;;0.87;100.00;102423.19;5011846;28;20116;-68
2022/04/03 02:08:41;;;;;;;3.35;2.60;;;;;;;0.89;100.00;102428.50;5011101;28;20130;-67
2022/04/03 02:11:06;;;;;;;3.42;2.40;;;;;;;0.86;100.00;102423.97;5012186;28;20060;-67
2022/04/03 02:13:32;;;;;;;9.48;3.13;;;;;;;0.81;100.00;102426.22;5011616;28;20389;-67
2022/04/03 02:15:57;;;;;;;6.15;2.70;;;;;;;0.90;100.00;102425.13;5011809;28;20022;-67
2022/04/03 02:18:23;;;;;;;5.30;2.90;;;;;;;1.03;100.00;102424.44;5002112;28;20030;-67
2022/04/03 02:20:48;;;;;;;4.85;2.40;;;;;;;0.92;100.00;102428.75;5013018;28;20048;-67
2022/04/03 02:23:14;;;;;;;6.00;2.40;;;;;;;0.79;100.00;102425.16;5012431;28;20056;-67
2022/04/03 02:25:39;;;;;;;4.63;2.60;;;;;;;0.74;100.00;102423.88;5012386;28;20454;-67
2022/04/03 02:28:04;;;;;;;6.15;3.00;;;;;;;0.67;100.00;102427.63;5009205;28;20393;-67
2022/04/03 02:30:30;;;;;;;4.53;3.00;;;;;;;0.85;100.00;102427.34;5012584;28;20052;-66
2022/04/03 02:32:56;;;;;;;4.05;2.60;;;;;;;0.81;100.00;102422.69;5011683;28;20058;-67
2022/04/03 02:35:22;;;;;;;7.03;2.72;;;;;;;0.75;100.00;102422.19;5014798;28;20030;-66
2022/04/03 02:37:47;;;;;;;4.05;2.65;;;;;;;0.75;100.00;102423.09;5013631;28;20492;-67
2022/04/03 02:40:16;;;;;;;7.90;2.78;;;;;;;0.58;100.00;102419.09;5012176;28;20436;-67
2022/04/03 02:42:42;;;;;;;3.42;2.33;;;;;;;0.52;100.00;102420.28;4994869;28;20022;-67
2022/04/03 02:45:12;;;;;;;4.57;2.58;;;;;;;0.43;100.00;102426.50;5010795;28;20052;-67
2022/04/03 02:47:37;;;;;;;4.53;2.65;;;;;;;0.43;100.00;102421.34;5011297;28;20018;-67
2022/04/03 02:50:04;;;;;;;3.58;2.35;;;;;;;0.32;100.00;102417.84;4994972;28;20469;-67
2022/04/03 02:52:30;;;;;;;3.38;2.53;;;;;;;0.32;100.00;102427.31;5011120;28;20418;-66
2022/04/03 02:54:56;;;;;;;6.50;2.92;;;;;;;0.28;100.00;102431.31;5011710;28;20065;-66
2022/04/03 02:57:22;;;;;;;12.30;2.97;;;;;;;0.25;100.00;102430.19;5011242;28;20073;-67
2022/04/03 02:59:48;;;;;;;7.15;2.97;;;;;;;0.37;100.00;102432.84;5013960;28;20036;-66
2022/04/03 03:02:13;;;;;;;4.88;2.83;;;;;;;0.27;100.00;102429.53;5016906;28;20393;-66
2022/04/03 03:04:39;;;;;;;6.35;2.50;;;;;;;0.30;100.00;102429.78;4997761;28;20520;-66
2022/04/03 03:07:06;;;;;;;2.90;1.98;;;;;;;0.47;100.00;102438.03;5015277;28;20095;-67
2022/04/03 03:09:32;;;;;;;5.50;2.40;;;;;;;0.45;100.00;102437.03;5013044;28;20048;-67
2022/04/03 03:11:59;;;;;;;5.03;2.75;;;;;;;0.44;100.00;102433.50;4998218;28;20394;-67
2022/04/03 03:14:25;;;;;;;5.25;2.80;;;;;;;0.42;100.00;102429.91;5016941;28;20554;-67
2022/04/03 03:16:50;;;;;;;5.60;2.80;;;;;;;0.35;100.00;102432.72;5017449;28;20029;-67
2022/04/03 03:19:16;;;;;;;5.35;3.17;;;;;;;0.31;100.00;102431.59;5013829;28;20057;-67
2022/04/03 03:21:42;;;;;;;5.72;2.92;;;;;;;0.24;100.00;102425.75;5011287;28;20032;-67
2022/04/03 03:24:09;;;;;;;10.98;2.90;;;;;;;0.21;100.00;102428.09;5014315;28;20105;-67
2022/04/03 03:26:35;;;;;;;6.15;3.13;;;;;;;0.14;100.00;102429.28;5014992;28;20033;-68
2022/04/03 03:29:00;;;;;;;4.63;2.90;;;;;;;0.07;100.00;102426.91;5014535;28;20061;-67
2022/04/03 03:31:25;;;;;;;6.35;2.80;;;;;;;0.11;100.00;102426.41;4997720;28;20033;-67
2022/04/03 03:33:51;;;;;;;5.88;2.83;;;;;;;0.04;100.00;102424.09;5015307;28;20029;-66
2022/04/03 03:36:16;;;;;;;9.77;3.05;;;;;;;0.02;100.00;102425.66;5015203;28;20366;-68
2022/04/03 03:38:42;;;;;;;11.63;3.15;;;;;;;-0.01;100.00;102427.19;5016224;28;20025;-66
2022/04/03 03:41:07;;;;;;;6.88;3.15;;;;;;;-0.05;100.00;102422.53;5013373;28;20021;-67
2022/04/03 03:43:32;;;;;;;6.40;2.80;;;;;;;0.03;100.00;102428.38;5002496;28;20042;-67
2022/04/03 03:45:59;;;;;;;4.97;2.42;;;;;;;-0.06;100.00;102428.47;5017524;28;20030;-67
2022/04/03 03:48:25;;;;;;;5.10;2.70;;;;;;;-0.09;100.00;102427.31;5014452;28;20026;-67
2022/04/03 03:50:51;;;;;;;6.78;3.05;;;;;;;-0.05;100.00;102424.22;5014908;28;20045;-67
2022/04/03 03:53:17;;;;;;;5.88;2.75;;;;;;;-0.04;100.00;102421.75;5014666;28;20069;-68
2022/04/03 03:55:42;;;;;;;5.07;3.00;;;;;;;-0.11;100.00;102423.69;5013108;28;20069;-67
2022/04/03 03:58:08;;;;;;;10.63;3.28;;;;;;;0.06;100.00;102430.31;4996442;28;20045;-68
2022/04/03 04:00:34;;;;;;;5.63;2.90;;;;;;;0.05;100.00;102419.03;5015844;28;20071;-68
2022/04/03 04:02:59;;;;;;;4.07;2.67;;;;;;;0.06;100.00;102417.38;4990781;28;20128;-68
2022/04/03 04:05:25;;;;;;;7.32;3.03;;;;;;;0.09;100.00;102422.78;4996832;28;20057;-67
2022/04/03 04:07:50;;;;;;;5.85;2.97;;;;;;;-0.04;100.00;102429.53;4997024;28;20044;-67
2022/04/03 04:10:16;;;;;;;5.82;3.15;;;;;;;-0.10;100.00;102436.75;5002175;28;20030;-67
2022/04/03 04:12:43;;;;;;;6.80;3.10;;;;;;;-0.17;100.00;102437.00;5013462;28;20025;-67
2022/04/03 04:15:10;;;;;;;7.68;3.30;;;;;;;-0.12;100.00;102439.97;5013523;28;20030;-67
2022/04/03 04:17:41;;;;;;;7.90;3.45;;;;;;;-0.15;100.00;102442.31;5009581;28;20034;-67
2022/04/03 04:20:09;;;;;;;4.15;2.67;;;;;;;-0.22;100.00;102440.88;5018281;28;20065;-67
2022/04/03 04:22:35;;;;;;;4.78;3.10;;;;;;;-0.23;100.00;102442.56;5011484;28;20359;-68
2022/04/03 04:25:01;;;;;;;6.30;2.92;;;;;;;-0.25;100.00;102450.97;5018274;28;20438;-68
2022/04/03 04:27:26;;;;;;;4.32;2.80;;;;;;;-0.28;100.00;102445.53;5012808;28;20076;-67
2022/04/03 04:29:52;;;;;;;5.78;3.20;;;;;;;-0.30;100.00;102444.47;5014010;28;20026;-67
2022/04/03 04:32:17;;;;;;;4.15;2.90;;;;;;;-0.37;100.00;102443.03;5018344;28;20053;-67
2022/04/03 04:34:42;;;;;;;7.32;3.25;;;;;;;-0.45;100.00;102442.38;5013860;28;20037;-67
2022/04/03 04:37:07;;;;;;;3.67;3.15;;;;;;;-0.44;100.00;102446.78;5013755;28;20026;-66
2022/04/03 04:39:33;;;;;;;4.68;2.65;;;;;;;-0.49;100.00;102450.63;5013463;28;20037;-68
2022/04/03 04:41:58;;;;;;;5.80;3.22;;;;;;;-0.50;100.00;102454.03;5012109;28;20417;-67
2022/04/03 04:44:24;;;;;;;7.65;3.13;;;;;;;-0.44;100.00;102448.47;5013533;28;20064;-67
2022/04/03 04:46:49;;;;;;;6.20;3.40;;;;;;;-0.47;100.00;102449.09;5015645;28;20033;-67
2022/04/03 04:49:16;;;;;;;3.50;3.13;;;;;;;-0.52;100.00;102451.31;5014187;28;20405;-67
2022/04/03 04:51:42;;;;;;;4.55;3.00;;;;;;;-0.54;100.00;102451.94;5011316;28;20022;-67
2022/04/03 04:54:08;;;;;;;5.13;3.20;;;;;;;-0.52;100.00;102445.19;5016348;28;20055;-66
2022/04/03 04:56:34;;;;;;;8.00;3.33;;;;;;;-0.58;100.00;102445.59;5015121;28;20099;-68
2022/04/03 04:58:59;;;;;;;7.95;3.33;;;;;;;-0.60;100.00;102441.03;5011090;28;20393;-67
2022/04/03 05:01:25;;;;;;;6.90;3.70;;;;;;;-0.43;100.00;102445.13;5016822;28;20037;-68
2022/04/03 05:03:50;;;;;;;5.25;3.75;;;;;;;-0.49;100.00;102444.56;5008539;28;20026;-67
2022/04/03 05:06:16;;;;;;;7.63;3.53;;;;;;;-0.54;100.00;102445.06;5013526;28;20029;-67
2022/04/03 05:08:42;;;;;;;9.52;3.75;;;;;;;-0.63;100.00;102445.97;5013256;28;20393;-67
2022/04/03 05:11:07;;;;;;;7.28;3.30;;;;;;;-0.58;100.00;102442.09;5011195;28;20026;-67
2022/04/03 05:13:33;;;;;;;8.60;3.95;;;;;;;-0.36;100.00;102438.00;5011170;28;20036;-68
2022/04/03 05:15:59;;;;;;;11.15;3.95;;;;;;;-0.32;100.00;102443.47;5012138;28;20038;-67
2022/04/03 05:18:24;;;;;;;6.75;3.60;;;;;;;-0.33;100.00;102433.88;5021562;28;20057;-67
2022/04/03 05:20:50;;;;;;;6.35;3.67;;;;;;;-0.38;100.00;102438.63;5007066;28;20087;-67
2022/04/03 05:23:16;;;;;;;5.13;3.03;;;;;;;-0.48;100.00;102434.34;5011823;28;20030;-67
2022/04/03 05:25:41;;;;;;;6.30;3.63;;;;;;;-0.54;100.00;102431.25;5004213;28;20026;-67
2022/04/03 05:28:08;;;;;;;6.18;3.63;;;;;;;-0.57;100.00;102436.13;5009353;28;20037;-67
2022/04/03 05:30:34;;;;;;;7.95;4.15;;;;;;;-0.62;100.00;102437.44;5008315;28;20045;-67
2022/04/03 05:32:59;;;;;;;4.72;3.63;;;;;;;-0.62;100.00;102430.56;5012669;28;20030;-67
2022/04/03 05:35:25;;;;;;;13.95;4.35;;;;;;;-0.51;100.00;102434.09;4993999;28;20088;-67
2022/04/03 05:37:50;;;;;;;6.38;4.05;;;;;;;-0.45;100.00;102432.03;4999972;28;20018;-67
2022/04/03 05:40:15;;;;;;;10.57;4.45;;;;;;;-0.40;100.00;102433.34;5015637;28;20112;-67
2022/04/03 05:42:41;;;;;;;10.43;4.60;;;;;;;-0.37;100.00;102431.03;5010883;28;20017;-67
2022/04/03 05:45:09;;;;;;;7.72;5.05;;;;;;;-0.31;100.00;102434.91;4993921;28;20022;-67
2022/04/03 05:47:35;;;;;;;8.77;4.97;;;;;;;-0.42;100.00;102439.16;5011051;28;20026;-67
2022/04/03 05:50:00;;;;;;;11.50;6.47;;;;;;;-0.48;100.00;102436.94;5011109;28;20030;-67
2022/04/03 05:52:26;;;;;;;28.30;11.15;;;;;;;-0.37;100.00;102436.22;4994047;28;20036;-67
2022/04/03 05:54:51;;;;;;;8.57;5.00;;;;;;;-0.20;100.00;102434.16;5017661;28;20120;-67
2022/04/03 05:57:17;;;;;;;12.70;5.90;;;;;;;-0.20;100.00;102435.06;4994225;28;20052;-67
2022/04/03 05:59:42;;;;;;;9.13;4.35;;;;;;;-0.13;100.00;102436.50;5006306;28;20032;-68
2022/04/03 06:02:07;;;;;;;9.60;4.90;;;;;;;-0.14;100.00;102433.78;5010580;28;20030;-67
2022/04/03 06:04:33;;;;;;;6.13;4.32;;;;;;;-0.05;100.00;102439.75;5011267;28;20113;-67
2022/04/03 06:06:58;;;;;;;12.25;5.03;;;;;;;-0.03;100.00;102439.09;5013256;28;20474;-66
2022/04/03 06:09:24;;;;;;;7.32;3.90;;;;;;;-0.08;100.00;102442.03;5012758;28;20026;-67
2022/04/03 06:11:51;;;;;;;7.18;5.00;;;;;;;-0.08;100.00;102440.38;4993014;28;20393;-67
2022/04/03 06:14:16;;;;;;;8.15;4.68;;;;;;;-0.05;100.00;102448.41;5010466;28;20151;-67
2022/04/03 06:16:42;;;;;;;8.18;4.90;;;;;;;0.15;100.00;102450.09;5014236;28;20474;-69
2022/04/03 06:19:07;;;;;;;13.70;4.65;;;;;;;0.17;100.00;102452.81;5010392;28;20061;-67
2022/04/03 06:21:32;;;;;;;6.78;5.00;;;;;;;0.20;100.00;102458.25;5010444;28;20509;-67
2022/04/03 06:23:58;;;;;;;7.05;4.82;;;;;;;0.24;100.00;102465.50;5011275;28;20084;-68
2022/04/03 06:26:23;;;;;;;7.72;4.97;;;;;;;0.30;100.00;102455.66;5009190;28;20046;-68
2022/04/03 06:28:48;;;;;;;7.72;4.45;;;;;;;0.35;100.00;102457.75;5011004;28;20385;-67
2022/04/03 06:31:13;;;;;;;13.48;5.45;;;;;;;0.49;100.00;102462.41;5010265;28;20076;-67
2022/04/03 06:33:39;;;;;;;7.22;4.75;;;;;;;0.55;100.00;102462.00;5011118;28;20427;-67
2022/04/03 06:36:06;;;;;;;7.18;5.03;;;;;;;0.61;100.00;102466.00;5014840;28;20045;-67
2022/04/03 06:38:31;;;;;;;8.52;5.53;;;;;;;0.65;100.00;102457.72;5014931;28;20021;-67
2022/04/03 06:40:58;;;;;;;9.10;4.55;;;;;;;0.73;100.00;102457.44;5012346;28;20083;-67
2022/04/03 06:43:26;;;;;;;6.95;5.20;;;;;;;0.81;100.00;102461.56;5010022;28;20478;-66
2022/04/03 06:45:52;;;;;;;7.80;4.80;;;;;;;0.89;100.00;102465.69;5013347;28;20022;-69
2022/04/03 06:48:18;;;;;;;8.43;4.82;;;;;;;0.98;100.00;102457.75;5014072;28;20033;-67
2022/04/03 06:50:44;;;;;;;10.07;4.65;;;;;;;1.10;100.00;102463.94;5007816;28;20477;-67
2022/04/03 06:53:10;;;;;;;8.88;4.68;;;;;;;1.18;100.00;102464.53;4996721;28;20035;-67
2022/04/03 06:55:35;;;;;;;12.50;5.13;;;;;;;1.29;100.00;102468.94;5015399;28;20033;-67
2022/04/03 06:58:01;;;;;;;5.85;4.30;;;;;;;1.43;100.00;102461.34;5014358;28;20440;-67
2022/04/03 07:00:27;;;;;;;5.00;4.30;;;;;;;1.57;100.00;102465.94;5009427;28;20510;-67
2022/04/03 07:02:53;;;;;;;7.18;4.20;;;;;;;1.71;100.00;102461.84;5013164;28;20034;-67
2022/04/03 07:05:19;;;;;;;9.98;5.00;;;;;;;1.85;100.00;102468.13;5012894;28;20116;-68
2022/04/03 07:07:44;;;;;;;7.22;4.20;;;;;;;1.91;100.00;102462.50;5010442;28;20465;-67
2022/04/03 07:10:10;;;;;;;8.90;4.22;;;;;;;2.02;100.00;102469.41;5016770;28;20025;-68
2022/04/03 07:12:36;;;;;;;4.38;3.35;;;;;;;2.16;100.00;102471.41;5010339;28;20057;-67
2022/04/03 07:15:03;;;;;;;6.78;4.07;;;;;;;2.34;100.00;102464.09;5012792;28;20033;-67
2022/04/03 07:17:28;;;;;;;10.18;2.83;;;;;;;2.48;100.00;102459.03;4996067;28;20035;-67
2022/04/03 07:19:53;;;;;;;5.82;2.83;;;;;;;2.59;100.00;102463.38;5011127;28;20113;-68
2022/04/03 07:22:19;;;;;;;5.95;2.90;;;;;;;2.63;100.00;102465.41;5016711;28;20053;-67
2022/04/03 07:24:45;;;;;;;11.80;3.53;;;;;;;2.68;99.44;102457.94;5015621;28;20026;-68
2022/04/03 07:27:10;;;;;;;6.95;3.22;;;;;;;2.75;99.61;102469.72;5018078;28;20032;-68
2022/04/03 07:29:35;;;;;;;3.92;2.78;;;;;;;2.77;99.19;102468.13;4994554;28;20027;-66
2022/04/03 07:32:01;;;;;;;6.20;3.53;;;;;;;2.85;98.56;102460.09;5016835;28;20034;-67
2022/04/03 07:34:26;;;;;;;5.57;3.03;;;;;;;3.00;97.35;102462.03;5012940;28;20032;-67
2022/04/03 07:36:52;;;;;;;4.57;2.70;;;;;;;3.19;95.77;102461.69;5011293;28;20109;-68
2022/04/03 07:39:17;;;;;;;5.13;2.60;;;;;;;3.40;94.72;102459.72;5011888;28;20057;-68
2022/04/03 07:41:43;;;;;;;5.63;2.35;;;;;;;3.58;93.25;102454.03;5013921;28;20026;-68
2022/04/03 07:44:09;;;;;;;4.85;2.40;;;;;;;3.78;89.92;102450.22;5013834;28;20117;-67
2022/04/03 07:46:36;;;;;;;6.20;2.13;;;;;;;3.88;90.02;102444.88;5010051;28;20596;-68
2022/04/03 07:49:01;;;;;;;5.50;2.30;;;;;;;4.00;89.22;102445.72;5013750;28;20091;-68
2022/04/03 07:51:27;;;;;;;3.08;2.00;;;;;;;4.10;88.13;102446.38;5011148;28;20034;-68
2022/04/03 07:53:53;;;;;;;5.75;2.30;;;;;;;4.20;87.46;102448.78;5011982;28;20026;-68
2022/04/03 07:56:18;;;;;;;6.07;2.00;;;;;;;4.27;88.37;102451.00;5012809;28;20043;-68
2022/04/03 07:58:44;;;;;;;5.95;2.20;;;;;;;4.39;87.39;102454.47;5010260;28;20746;-68
2022/04/03 08:01:09;;;;;;;7.57;1.50;;;;;;;4.45;86.02;102451.38;5010276;28;20164;-68
2022/04/03 08:03:35;;;;;;;3.50;1.50;;;;;;;4.47;85.20;102452.34;5012485;28;20036;-68
2022/04/03 08:06:00;;;;;;;2.33;1.08;;;;;;;4.48;85.94;102453.28;4992957;28;20048;-69
2022/04/03 08:08:26;;;;;;;6.78;1.23;;;;;;;4.46;85.40;102458.34;5011022;28;20022;-70
2022/04/03 08:10:51;;;;;;;3.20;1.27;;;;;;;4.46;85.35;102460.06;4995337;28;20038;-69
2022/04/03 08:13:17;;;;;;;4.28;1.40;;;;;;;4.48;85.28;102464.59;5013322;28;20029;-68
2022/04/03 08:15:43;;;;;;;3.15;1.42;;;;;;;4.54;85.43;102470.25;5009030;28;20049;-70
2022/04/03 08:18:09;;;;;;;2.55;1.17;;;;;;;4.71;83.72;102458.31;4996511;28;20025;-69
2022/04/03 08:20:35;;;;;;;3.88;0.98;;;;;;;4.88;83.31;102455.91;5014244;28;20417;-70
2022/04/03 08:23:03;;;;;;;2.72;1.23;;;;;;;5.05;83.62;102463.13;5013275;28;20038;-69
2022/04/03 08:25:30;;;;;;;2.60;1.05;;;;;;;5.24;82.80;102452.19;5014087;28;20032;-70
2022/04/03 08:27:56;;;;;;;5.97;1.23;;;;;;;5.43;81.79;102465.53;5013635;28;20045;-69
2022/04/03 08:30:33;;;;;;;4.55;1.05;;;;;;;5.51;80.17;102454.75;4995453;28;20030;-68
2022/04/03 08:33:00;;;;;;;1.40;0.95;;;;;;;5.73;80.42;102459.59;4996365;28;20051;-69
2022/04/03 08:35:27;;;;;;;4.95;1.30;;;;;;;5.85;79.08;102459.47;5014141;28;20100;-69
2022/04/03 08:37:54;;;;;;;3.67;1.20;;;;;;;5.91;79.85;102461.56;5017410;28;20416;-68
2022/04/03 08:40:22;;;;;;;2.25;1.10;;;;;;;5.93;79.44;102470.41;4993459;28;20488;-69
2022/04/03 08:42:49;;;;;;;2.00;1.10;;;;;;;5.99;78.94;102465.56;5013049;28;20034;-69
2022/04/03 08:45:14;;;;;;;2.30;1.77;;;;;;;5.89;78.73;102463.19;5013454;28;20084;-70
2022/04/03 08:47:47;;;;;;;4.05;1.17;;;;;;;5.86;78.73;102469.13;5013263;28;20030;-69
2022/04/03 08:50:15;;;;;;;3.13;1.40;;;;;;;5.85;79.17;102466.41;4999960;28;20103;-68
2022/04/03 08:52:47;;;;;;;2.83;1.50;;;;;;;5.86;79.38;102463.91;5012426;28;20265;-68
2022/04/03 08:55:13;;;;;;;1.25;1.02;;;;;;;5.86;78.81;102462.97;5012625;28;20028;-68
2022/04/03 08:57:39;;;;;;;4.47;1.40;;;;;;;5.95;78.44;102460.06;5012605;28;20022;-67
2022/04/03 09:00:06;;;;;;;4.13;1.35;;;;;;;6.01;78.50;102458.75;5011927;28;20034;-67
2022/04/03 09:02:32;;;;;;;7.05;1.42;;;;;;;6.08;78.41;102467.88;5011215;28;20037;-68
2022/04/03 09:04:57;;;;;;;1.67;1.38;;;;;;;6.13;78.96;102463.84;5007366;28;20030;-70
2022/04/03 09:07:22;;;;;;;7.78;1.42;;;;;;;6.07;76.87;102464.34;5010852;28;20036;-68
2022/04/03 09:09:59;;;;;;;1.88;0.95;;;;;;;6.06;77.65;102466.84;5013059;28;20022;-68
2022/04/03 09:12:24;;;;;;;5.93;0.73;;;;;;;6.12;74.74;102461.09;5010024;28;20022;-68
2022/04/03 09:14:54;;;;;;;1.02;0.55;;;;;;;6.16;74.65;102465.69;5013345;28;20385;-68
2022/04/03 09:17:38;;;;;;;6.15;0.80;;;;;;;6.28;75.52;102463.84;5012485;28;20041;-68
2022/04/03 09:20:06;;;;;;;5.60;1.00;;;;;;;6.37;77.21;102461.75;5014981;28;20046;-68
2022/04/03 09:22:34;;;;;;;1.25;0.73;;;;;;;6.36;81.35;102462.59;5011369;28;20044;-74
2022/04/03 09:24:59;;;;;;;2.80;0.55;;;;;;;6.59;80.47;102468.28;5013627;28;20525;-68
2022/04/03 09:27:25;;;;;;;3.67;0.88;;;;;;;6.68;80.49;102460.97;5013276;28;20021;-68
2022/04/03 09:30:02;;;;;;;4.47;0.75;;;;;;;6.78;81.97;102462.41;5012975;28;20056;-68
2022/04/03 09:32:28;;;;;;;2.58;0.65;;;;;;;6.90;79.07;102459.59;5011381;28;20022;-68
2022/04/03 09:34:57;;;;;;;1.48;0.60;;;;;;;7.12;76.28;102458.22;5008473;28;20891;-68
2022/04/03 09:37:23;;;;;;;1.02;0.45;;;;;;;7.28;76.20;102460.00;5012479;28;20022;-69
2022/04/03 09:39:48;;;;;;;2.28;1.08;;;;;;;7.33;76.89;102463.78;5012772;28;20531;-69
2022/04/03 09:42:15;;;;;;;2.70;0.57;;;;;;;7.50;74.74;102456.84;5011823;28;20092;-68
2022/04/03 09:44:44;;;;;;;3.20;0.73;;;;;;;7.51;76.56;102461.28;5012178;28;20165;-68
2022/04/03 09:47:10;;;;;;;1.45;0.60;;;;;;;7.65;76.64;102462.03;5013585;28;20026;-69
2022/04/03 09:49:35;;;;;;;1.23;0.50;;;;;;;7.77;74.25;102457.44;5012913;28;20025;-67
2022/04/03 09:52:01;;;;;;;2.25;0.50;;;;;;;7.91;74.34;102461.72;5018823;28;20381;-68
2022/04/03 09:54:26;;;;;;;2.30;0.50;;;;;;;8.07;74.34;102452.03;5012086;28;20111;-68
2022/04/03 09:56:52;;;;;;;4.38;0.80;;;;;;;8.01;76.04;102457.84;4993615;28;20092;-69
2022/04/03 09:59:17;;;;;;;2.05;0.57;;;;;;;8.15;73.79;102449.81;5021863;28;20021;-68
2022/04/03 10:01:42;;;;;;;1.23;0.75;;;;;;;8.12;73.82;102450.56;5013587;28;20022;-71
2022/04/03 10:04:15;;;;;;;2.40;0.60;;;;;;;8.12;72.18;102440.06;5011085;28;20030;-68
2022/04/03 10:06:42;;;;;;;6.63;0.88;;;;;;;8.17;72.48;102438.59;5011613;28;20470;-69
2022/04/03 10:09:14;;;;;;;5.30;0.73;;;;;;;8.23;70.38;102428.44;5014391;28;20032;-70
2022/04/03 10:11:41;;;;;;;3.30;2.45;;;;;;;8.18;70.58;102439.50;5016827;28;20038;-69
2022/04/03 10:14:08;;;;;;;5.50;0.60;;;;;;;8.32;68.06;102433.25;5016289;28;20025;-69
2022/04/03 10:16:34;;;;;;;4.57;0.50;;;;;;;8.44;66.23;102431.25;5020079;28;20032;-71
2022/04/03 10:19:00;;;;;;;2.35;0.68;;;;;;;8.62;66.56;102435.66;5027151;28;20049;-70
2022/04/03 10:21:38;;;;;;;2.92;0.47;;;;;;;8.51;65.89;102431.59;5017680;28;20022;-67
2022/04/03 10:24:19;;;;;;;2.00;0.45;;;;;;;8.17;66.67;102437.72;5024121;28;20040;-69
2022/04/03 10:26:50;;;;;;;1.00;0.60;;;;;;;8.23;67.70;102443.25;5024795;28;20421;-68
2022/04/03 10:29:16;;;;;;;0.30;0.30;;;;;;;8.19;66.27;102434.34;4993220;28;20446;-67
2022/04/03 10:31:55;;;;;;;1.50;0.38;;;;;;;8.17;65.86;102435.97;5008646;28;20100;-66
2022/04/03 10:34:21;;;;;;;2.80;0.50;;;;;;;8.17;68.46;102442.97;5010194;28;20413;-69
2022/04/03 10:36:47;;;;;;;1.75;0.65;;;;;;;8.20;68.27;102435.25;5016344;28;20061;-68
2022/04/03 10:39:25;;;;;;;2.03;0.50;;;;;;;8.07;68.61;102437.22;5004071;28;20061;-67
2022/04/03 10:42:20;;;;;;;1.13;0.45;;;;;;;7.89;69.30;102431.00;5016223;28;20026;-67
2022/04/03 10:45:10;;;;;;;2.63;0.57;;;;;;;7.70;70.70;102440.47;5015377;28;20025;-69
2022/04/03 10:47:36;;;;;;;3.22;1.20;;;;;;;7.90;72.18;102433.69;5005625;28;20377;-67
2022/04/03 10:50:03;;;;;;;1.38;0.60;;;;;;;8.49;71.71;102438.47;5015661;28;20033;-67
2022/04/03 10:52:38;;;;;;;1.35;0.88;;;;;;;8.89;70.82;102435.25;5001538;28;20038;-68
2022/04/03 10:55:15;;;;;;;1.35;0.55;;;;;;;8.64;71.51;102435.72;5015960;28;20062;-68
2022/04/03 10:57:43;;;;;;;5.93;1.08;;;;;;;8.72;74.00;102440.56;5005047;28;20042;-69
2022/04/03 11:00:11;;;;;;;1.15;0.60;;;;;;;8.86;71.99;102433.34;5014385;28;20420;-68
2022/04/03 11:02:37;;;;;;;2.28;0.95;;;;;;;8.88;71.69;102431.69;5015576;28;20065;-70
2022/04/03 11:05:21;;;;;;;1.77;0.65;;;;;;;8.87;75.62;102426.38;5011682;28;20075;-69
2022/04/03 11:07:50;;;;;;;1.83;0.60;;;;;;;9.28;71.91;102422.25;5015075;28;20026;-69
2022/04/03 11:10:54;;;;;;;1.55;1.02;;;;;;;9.82;70.00;102422.09;5015395;28;20036;-69
2022/04/03 11:13:34;;;;;;;3.17;0.40;;;;;;;10.13;67.55;102421.72;5015886;28;20033;-68
2022/04/03 11:16:11;;;;;;;8.43;0.80;;;;;;;9.81;67.71;102419.38;5014351;28;20125;-68
2022/04/03 11:18:37;;;;;;;1.85;0.57;;;;;;;9.73;68.74;102413.78;4997788;28;20581;-69
2022/04/03 11:21:24;;;;;;;5.18;0.80;;;;;;;9.25;69.33;102422.06;5013892;28;20117;-69
2022/04/03 11:23:55;;;;;;;2.00;0.60;;;;;;;9.27;70.78;102423.06;4990829;28;20038;-68
2022/04/03 11:26:22;;;;;;;1.17;0.47;;;;;;;9.65;70.11;102420.44;4998007;28;20022;-68